Terminal Aerodrome Forecast
Issued by NWS

Home | Current Version | Previous Version | Text Only | Print | Product List | Glossary On
Versions: 1 2 3 4 5 6 7 8 9 10 11 12 13 14 15 16 17 18 19 20 21 22 23 24 25 26 27 28 29 30 31 32 33 34 35 36 37 38 39 40 41 42 43 44 45 46
000
FTUS41 KCTP 020532
TAFAOO
TAF
KAOO 020532Z 0206/0306 23005KT P6SM BKN250 WS020/20035KT
     FM021600 19010G20KT P6SM SCT035 BKN100
     FM022300 21010G20KT P6SM VCSH OVC035
     FM030400 23008G16KT 5SM -SHRA BR OVC030=

USA.gov is the U.S. government's official web portal to all federal, state and local government web resources and services.